sensor_id;sensor_type;location;lat;lon;timestamp;pressure;altitude;pressure_sealevel;temperature;humidity
48926;BME280;39838;59.938;30.642;2022-12-07T00:01:21;100461.66;;;-5.76;79.21
48926;BME280;39838;59.938;30.642;2022-12-07T00:03:51;100452.72;;;-5.71;79.03
48926;BME280;39838;59.938;30.642;2022-12-07T00:06:19;100457.00;;;-5.70;79.58
48926;BME280;39838;59.938;30.642;2022-12-07T00:08:47;100461.88;;;-5.73;78.97
48926;BME280;39838;59.938;30.642;2022-12-07T00:11:17;100429.47;;;-5.92;79.28
48926;BME280;39838;59.938;30.642;2022-12-07T00:13:45;100461.88;;;-5.73;79.01
48926;BME280;39838;59.938;30.642;2022-12-07T00:16:14;100417.22;;;-5.99;79.57
48926;BME280;39838;59.938;30.642;2022-12-07T00:18:43;100454.66;;;-5.80;79.14
48926;BME280;39838;59.938;30.642;2022-12-07T00:21:12;100441.94;;;-5.82;79.70
48926;BME280;39838;59.938;30.642;2022-12-07T00:23:40;100464.50;;;-5.71;79.05
48926;BME280;39838;59.938;30.642;2022-12-07T00:26:09;100459.66;;;-5.68;79.77
48926;BME280;39838;59.938;30.642;2022-12-07T00:28:38;100456.41;;;-5.66;79.37
48926;BME280;39838;59.938;30.642;2022-12-07T00:31:08;100461.47;;;-5.66;79.49
48926;BME280;39838;59.938;30.642;2022-12-07T00:33:36;100464.19;;;-5.63;79.38
48926;BME280;39838;59.938;30.642;2022-12-07T00:36:07;100453.41;;;-5.60;79.16
48926;BME280;39838;59.938;30.642;2022-12-07T00:38:35;100435.00;;;-5.71;79.26
48926;BME280;39838;59.938;30.642;2022-12-07T00:41:04;100455.63;;;-5.65;79.54
48926;BME280;39838;59.938;30.642;2022-12-07T00:43:32;100458.47;;;-5.60;79.13
48926;BME280;39838;59.938;30.642;2022-12-07T00:46:00;100457.13;;;-5.55;79.42
48926;BME280;39838;59.938;30.642;2022-12-07T00:48:28;100460.41;;;-5.56;79.51
48926;BME280;39838;59.938;30.642;2022-12-07T00:50:55;100455.47;;;-5.55;79.41
48926;BME280;39838;59.938;30.642;2022-12-07T00:53:23;100459.03;;;-5.51;79.45
48926;BME280;39838;59.938;30.642;2022-12-07T00:55:50;100463.22;;;-5.52;79.05
48926;BME280;39838;59.938;30.642;2022-12-07T00:58:18;100446.47;;;-5.63;78.99
48926;BME280;39838;59.938;30.642;2022-12-07T01:00:45;100460.59;;;-5.53;79.38
48926;BME280;39838;59.938;30.642;2022-12-07T01:03:14;100451.94;;;-5.57;79.71
48926;BME280;39838;59.938;30.642;2022-12-07T01:05:50;100465.66;;;-5.53;79.53
48926;BME280;39838;59.938;30.642;2022-12-07T01:08:17;100461.66;;;-5.50;79.44
48926;BME280;39838;59.938;30.642;2022-12-07T01:10:44;100458.25;;;-5.50;79.53
48926;BME280;39838;59.938;30.642;2022-12-07T01:13:12;100462.53;;;-5.49;79.45
48926;BME280;39838;59.938;30.642;2022-12-07T01:15:40;100463.44;;;-5.48;79.05
48926;BME280;39838;59.938;30.642;2022-12-07T01:18:07;100455.25;;;-5.44;79.93
48926;BME280;39838;59.938;30.642;2022-12-07T01:20:36;100450.47;;;-5.53;79.54
48926;BME280;39838;59.938;30.642;2022-12-07T01:23:03;100459.50;;;-5.43;79.25
48926;BME280;39838;59.938;30.642;2022-12-07T01:25:30;100457.19;;;-5.40;79.60
48926;BME280;39838;59.938;30.642;2022-12-07T01:27:58;100458.84;;;-5.41;79.12
48926;BME280;39838;59.938;30.642;2022-12-07T01:30:25;100462.13;;;-5.42;79.38
48926;BME280;39838;59.938;30.642;2022-12-07T01:32:52;100470.50;;;-5.43;79.74
48926;BME280;39838;59.938;30.642;2022-12-07T01:35:19;100473.91;;;-5.42;79.15
48926;BME280;39838;59.938;30.642;2022-12-07T01:37:47;100462.66;;;-5.47;79.33
48926;BME280;39838;59.938;30.642;2022-12-07T01:40:14;100471.22;;;-5.45;79.44
48926;BME280;39838;59.938;30.642;2022-12-07T01:42:41;100456.97;;;-5.43;79.37
48926;BME280;39838;59.938;30.642;2022-12-07T01:45:37;100456.97;;;-5.43;79.50
48926;BME280;39838;59.938;30.642;2022-12-07T01:48:06;100456.19;;;-5.42;79.39
48926;BME280;39838;59.938;30.642;2022-12-07T01:50:36;100467.88;;;-5.31;79.23
48926;BME280;39838;59.938;30.642;2022-12-07T01:53:06;100455.59;;;-5.25;79.18
48926;BME280;39838;59.938;30.642;2022-12-07T01:55:38;100449.59;;;-5.27;79.46
48926;BME280;39838;59.938;30.642;2022-12-07T01:58:07;100463.78;;;-5.29;79.61
48926;BME280;39838;59.938;30.642;2022-12-07T02:00:34;100463.91;;;-5.28;79.28
48926;BME280;39838;59.938;30.642;2022-12-07T02:03:05;100457.06;;;-5.29;79.92
48926;BME280;39838;59.938;30.642;2022-12-07T02:05:34;100464.38;;;-5.20;79.76
48926;BME280;39838;59.938;30.642;2022-12-07T02:08:02;100467.47;;;-5.11;79.95
48926;BME280;39838;59.938;30.642;2022-12-07T02:10:31;100461.59;;;-5.10;79.39
48926;BME280;39838;59.938;30.642;2022-12-07T02:13:02;100474.38;;;-5.08;79.66
48926;BME280;39838;59.938;30.642;2022-12-07T02:15:36;100463.34;;;-5.09;79.99
48926;BME280;39838;59.938;30.642;2022-12-07T02:18:09;100451.47;;;-5.10;79.66
48926;BME280;39838;59.938;30.642;2022-12-07T02:20:40;100459.28;;;-5.07;79.63
48926;BME280;39838;59.938;30.642;2022-12-07T02:23:40;100453.72;;;-5.01;79.97
48926;BME280;39838;59.938;30.642;2022-12-07T02:29:18;100466.16;;;-4.91;79.73
48926;BME280;39838;59.938;30.642;2022-12-07T02:31:55;100453.38;;;-4.92;79.42
48926;BME280;39838;59.938;30.642;2022-12-07T02:34:26;100452.22;;;-4.98;79.55
48926;BME280;39838;59.938;30.642;2022-12-07T02:36:59;100450.84;;;-4.92;80.04
48926;BME280;39838;59.938;30.642;2022-12-07T02:39:32;100452.69;;;-4.90;79.34
48926;BME280;39838;59.938;30.642;2022-12-07T02:42:09;100443.75;;;-4.98;79.44
48926;BME280;39838;59.938;30.642;2022-12-07T02:44:38;100446.66;;;-4.92;79.95
48926;BME280;39838;59.938;30.642;2022-12-07T02:47:09;100432.03;;;-4.96;79.68
48926;BME280;39838;59.938;30.642;2022-12-07T02:49:38;100453.75;;;-4.86;80.46
48926;BME280;39838;59.938;30.642;2022-12-07T02:52:06;100454.72;;;-4.84;79.55
48926;BME280;39838;59.938;30.642;2022-12-07T02:54:33;100453.94;;;-4.83;80.06
48926;BME280;39838;59.938;30.642;2022-12-07T02:57:07;100448.94;;;-4.82;79.47
48926;BME280;39838;59.938;30.642;2022-12-07T02:59:48;100441.25;;;-4.83;79.58
48926;BME280;39838;59.938;30.642;2022-12-07T03:02:24;100435.25;;;-4.85;79.48
48926;BME280;39838;59.938;30.642;2022-12-07T03:05:02;100407.81;;;-5.06;79.49
48926;BME280;39838;59.938;30.642;2022-12-07T03:07:36;100428.13;;;-4.91;80.22
48926;BME280;39838;59.938;30.642;2022-12-07T03:10:12;100395.94;;;-5.07;79.23
48926;BME280;39838;59.938;30.642;2022-12-07T03:12:45;100434.81;;;-4.78;80.35
48926;BME280;39838;59.938;30.642;2022-12-07T03:15:18;100425.72;;;-4.75;79.92
48926;BME280;39838;59.938;30.642;2022-12-07T03:17:48;100430.38;;;-4.68;79.77
48926;BME280;39838;59.938;30.642;2022-12-07T03:20:20;100414.47;;;-4.80;79.58
48926;BME280;39838;59.938;30.642;2022-12-07T03:22:49;100428.97;;;-4.77;80.17
48926;BME280;39838;59.938;30.642;2022-12-07T03:25:18;100426.44;;;-4.77;79.72
48926;BME280;39838;59.938;30.642;2022-12-07T03:27:50;100429.75;;;-4.78;79.89
48926;BME280;39838;59.938;30.642;2022-12-07T03:30:26;100357.69;;;-5.25;80.20
48926;BME280;39838;59.938;30.642;2022-12-07T03:32:59;100420.03;;;-4.85;79.66
48926;BME280;39838;59.938;30.642;2022-12-07T03:35:32;100422.31;;;-4.75;79.99
48926;BME280;39838;59.938;30.642;2022-12-07T03:38:14;100427.38;;;-4.75;79.46
48926;BME280;39838;59.938;30.642;2022-12-07T03:40:45;100426.84;;;-4.84;79.86
48926;BME280;39838;59.938;30.642;2022-12-07T03:43:16;100422.94;;;-4.79;80.01
48926;BME280;39838;59.938;30.642;2022-12-07T03:45:56;100420.78;;;-4.73;79.86
48926;BME280;39838;59.938;30.642;2022-12-07T03:48:32;100415.94;;;-4.69;79.64
48926;BME280;39838;59.938;30.642;2022-12-07T03:51:08;100409.03;;;-4.71;79.43
48926;BME280;39838;59.938;30.642;2022-12-07T03:53:40;100418.31;;;-4.72;79.15
48926;BME280;39838;59.938;30.642;2022-12-07T03:56:09;100418.22;;;-4.73;79.32
48926;BME280;39838;59.938;30.642;2022-12-07T03:58:38;100411.75;;;-4.68;79.47
48926;BME280;39838;59.938;30.642;2022-12-07T04:01:08;100414.47;;;-4.65;79.80
48926;BME280;39838;59.938;30.642;2022-12-07T04:03:35;100414.19;;;-4.70;79.68
48926;BME280;39838;59.938;30.642;2022-12-07T04:06:02;100407.31;;;-4.72;79.22
48926;BME280;39838;59.938;30.642;2022-12-07T04:08:29;100408.63;;;-4.64;79.85
48926;BME280;39838;59.938;30.642;2022-12-07T04:10:56;100406.25;;;-4.61;78.98
48926;BME280;39838;59.938;30.642;2022-12-07T04:13:23;100404.44;;;-4.63;79.06
48926;BME280;39838;59.938;30.642;2022-12-07T04:15:51;100401.72;;;-4.67;79.04
48926;BME280;39838;59.938;30.642;2022-12-07T04:18:19;100390.44;;;-4.72;79.45
48926;BME280;39838;59.938;30.642;2022-12-07T04:20:46;100403.84;;;-4.59;79.04
48926;BME280;39838;59.938;30.642;2022-12-07T04:23:14;100401.00;;;-4.64;78.84
48926;BME280;39838;59.938;30.642;2022-12-07T04:25:41;100402.41;;;-4.69;79.85
48926;BME280;39838;59.938;30.642;2022-12-07T04:28:08;100402.41;;;-4.69;79.45
48926;BME280;39838;59.938;30.642;2022-12-07T04:30:35;100398.81;;;-4.73;79.78
48926;BME280;39838;59.938;30.642;2022-12-07T04:33:02;100399.78;;;-4.71;79.29
48926;BME280;39838;59.938;30.642;2022-12-07T04:35:31;100395.50;;;-4.72;79.15
48926;BME280;39838;59.938;30.642;2022-12-07T04:37:58;100397.16;;;-4.72;79.66
48926;BME280;39838;59.938;30.642;2022-12-07T04:40:25;100394.63;;;-4.72;79.79
48926;BME280;39838;59.938;30.642;2022-12-07T04:42:52;100384.56;;;-4.71;79.21
48926;BME280;39838;59.938;30.642;2022-12-07T04:45:19;100381.44;;;-4.67;78.93
48926;BME280;39838;59.938;30.642;2022-12-07T04:47:46;100387.03;;;-4.72;79.22
48926;BME280;39838;59.938;30.642;2022-12-07T04:50:13;100395.22;;;-4.76;79.91
48926;BME280;39838;59.938;30.642;2022-12-07T04:52:41;100387.81;;;-4.73;79.65
48926;BME280;39838;59.938;30.642;2022-12-07T04:55:09;100390.16;;;-4.76;79.80
48926;BME280;39838;59.938;30.642;2022-12-07T04:57:36;100387.03;;;-4.72;78.96
48926;BME280;39838;59.938;30.642;2022-12-07T05:00:03;100387.03;;;-4.72;79.16
48926;BME280;39838;59.938;30.642;2022-12-07T05:02:31;100390.00;;;-4.64;79.85
48926;BME280;39838;59.938;30.642;2022-12-07T05:04:58;100385.00;;;-4.63;79.12
48926;BME280;39838;59.938;30.642;2022-12-07T05:07:25;100383.78;;;-4.70;79.85
48926;BME280;39838;59.938;30.642;2022-12-07T05:09:54;100379.50;;;-4.71;78.93
48926;BME280;39838;59.938;30.642;2022-12-07T05:12:21;100387.63;;;-4.76;79.73
48926;BME280;39838;59.938;30.642;2022-12-07T05:14:48;100395.72;;;-4.82;79.73
48926;BME280;39838;59.938;30.642;2022-12-07T05:17:15;100384.91;;;-4.79;79.35
48926;BME280;39838;59.938;30.642;2022-12-07T05:19:42;100387.09;;;-4.71;79.60
48926;BME280;39838;59.938;30.642;2022-12-07T05:22:09;100385.34;;;-4.72;79.50
48926;BME280;39838;59.938;30.642;2022-12-07T05:24:36;100395.06;;;-4.79;79.73
48926;BME280;39838;59.938;30.642;2022-12-07T05:27:05;100395.94;;;-4.79;79.25
48926;BME280;39838;59.938;30.642;2022-12-07T05:29:32;100394.84;;;-4.82;80.26
48926;BME280;39838;59.938;30.642;2022-12-07T05:31:59;100400.91;;;-4.80;80.11
48926;BME280;39838;59.938;30.642;2022-12-07T05:34:26;100400.50;;;-4.73;79.77
48926;BME280;39838;59.938;30.642;2022-12-07T05:36:53;100395.50;;;-4.72;79.78
48926;BME280;39838;59.938;30.642;2022-12-07T05:39:20;100386.16;;;-4.73;80.01
48926;BME280;39838;59.938;30.642;2022-12-07T05:41:47;100395.00;;;-4.66;79.48
48926;BME280;39838;59.938;30.642;2022-12-07T05:44:33;100400.06;;;-4.66;79.57
48926;BME280;39838;59.938;30.642;2022-12-07T05:47:00;100390.16;;;-4.61;79.08
48926;BME280;39838;59.938;30.642;2022-12-07T05:49:28;100399.00;;;-4.55;79.20
48926;BME280;39838;59.938;30.642;2022-12-07T05:51:55;100392.38;;;-4.53;79.81
48926;BME280;39838;59.938;30.642;2022-12-07T05:54:22;100387.91;;;-4.57;79.26
48926;BME280;39838;59.938;30.642;2022-12-07T05:56:50;100399.44;;;-4.62;79.34
48926;BME280;39838;59.938;30.642;2022-12-07T05:59:17;100394.19;;;-4.65;79.11
48926;BME280;39838;59.938;30.642;2022-12-07T06:01:51;100393.31;;;-4.65;79.38
48926;BME280;39838;59.938;30.642;2022-12-07T06:04:19;100387.03;;;-4.72;79.15
48926;BME280;39838;59.938;30.642;2022-12-07T06:06:46;100392.88;;;-4.73;79.52
48926;BME280;39838;59.938;30.642;2022-12-07T06:09:14;100396.19;;;-4.74;79.42
48926;BME280;39838;59.938;30.642;2022-12-07T06:11:41;100392.09;;;-4.72;79.04
48926;BME280;39838;59.938;30.642;2022-12-07T06:14:26;100396.00;;;-4.77;80.05
48926;BME280;39838;59.938;30.642;2022-12-07T06:16:54;100388.78;;;-4.71;79.49
48926;BME280;39838;59.938;30.642;2022-12-07T06:19:21;100384.56;;;-4.71;79.28
48926;BME280;39838;59.938;30.642;2022-12-07T06:21:48;100375.56;;;-4.80;79.14
48926;BME280;39838;59.938;30.642;2022-12-07T06:24:16;100390.34;;;-4.73;79.37
48926;BME280;39838;59.938;30.642;2022-12-07T06:26:44;100385.94;;;-4.76;79.79
48926;BME280;39838;59.938;30.642;2022-12-07T06:29:11;100388.41;;;-4.77;79.40
48926;BME280;39838;59.938;30.642;2022-12-07T06:31:39;100382.38;;;-4.79;78.76
48926;BME280;39838;59.938;30.642;2022-12-07T06:34:11;100362.31;;;-4.89;79.18
48926;BME280;39838;59.938;30.642;2022-12-07T06:36:39;100377.63;;;-4.88;79.39
48926;BME280;39838;59.938;30.642;2022-12-07T06:39:06;100382.59;;;-4.89;79.16
48926;BME280;39838;59.938;30.642;2022-12-07T06:41:35;100382.97;;;-4.83;80.07
48926;BME280;39838;59.938;30.642;2022-12-07T06:44:02;100388.91;;;-4.83;79.69
48926;BME280;39838;59.938;30.642;2022-12-07T06:46:29;100383.34;;;-4.77;79.49
48926;BME280;39838;59.938;30.642;2022-12-07T06:48:57;100388.56;;;-4.74;80.03
48926;BME280;39838;59.938;30.642;2022-12-07T06:51:25;100381.94;;;-4.72;79.88
48926;BME280;39838;59.938;30.642;2022-12-07T06:53:53;100389.13;;;-4.65;79.31
48926;BME280;39838;59.938;30.642;2022-12-07T06:56:20;100380.03;;;-4.61;79.87
48926;BME280;39838;59.938;30.642;2022-12-07T06:58:48;100389.28;;;-4.62;80.10
48926;BME280;39838;59.938;30.642;2022-12-07T07:01:17;100379.94;;;-4.63;79.70
48926;BME280;39838;59.938;30.642;2022-12-07T07:03:45;100399.28;;;-4.50;80.08
48926;BME280;39838;59.938;30.642;2022-12-07T07:06:13;100399.44;;;-4.47;79.93
48926;BME280;39838;59.938;30.642;2022-12-07T07:08:42;100388.53;;;-4.46;79.29
48926;BME280;39838;59.938;30.642;2022-12-07T07:11:11;100386.97;;;-4.44;79.41
48926;BME280;39838;59.938;30.642;2022-12-07T07:13:38;100382.84;;;-4.42;79.22
48926;BME280;39838;59.938;30.642;2022-12-07T07:16:06;100394.84;;;-4.40;79.43
48926;BME280;39838;59.938;30.642;2022-12-07T07:18:34;100396.75;;;-4.35;78.84
48926;BME280;39838;59.938;30.642;2022-12-07T07:21:02;100391.59;;;-4.37;78.91
48926;BME280;39838;59.938;30.642;2022-12-07T07:23:29;100394.41;;;-4.32;78.97
48926;BME280;39838;59.938;30.642;2022-12-07T07:25:58;100393.63;;;-4.31;78.33
48926;BME280;39838;59.938;30.642;2022-12-07T07:28:25;100391.25;;;-4.28;78.92
48926;BME280;39838;59.938;30.642;2022-12-07T07:30:53;100389.69;;;-4.26;78.41
48926;BME280;39838;59.938;30.642;2022-12-07T07:33:20;100396.66;;;-4.22;78.32
48926;BME280;39838;59.938;30.642;2022-12-07T07:35:47;100392.22;;;-4.26;78.27
48926;BME280;39838;59.938;30.642;2022-12-07T07:38:14;100399.91;;;-4.25;78.00
48926;BME280;39838;59.938;30.642;2022-12-07T07:40:41;100393.25;;;-4.23;78.24
48926;BME280;39838;59.938;30.642;2022-12-07T07:43:09;100394.94;;;-4.23;78.48
48926;BME280;39838;59.938;30.642;2022-12-07T07:45:37;100393.53;;;-4.18;78.39
48926;BME280;39838;59.938;30.642;2022-12-07T07:48:04;100395.34;;;-4.16;78.01
48926;BME280;39838;59.938;30.642;2022-12-07T07:50:31;100391.06;;;-4.17;78.04
48926;BME280;39838;59.938;30.642;2022-12-07T07:52:58;100395.28;;;-4.17;78.25
48926;BME280;39838;59.938;30.642;2022-12-07T07:55:26;100386.09;;;-4.15;78.69
48926;BME280;39838;59.938;30.642;2022-12-07T07:57:54;100393.16;;;-4.09;78.48
48926;BME280;39838;59.938;30.642;2022-12-07T08:00:23;100395.19;;;-4.04;78.67
48926;BME280;39838;59.938;30.642;2022-12-07T08:02:50;100395.25;;;-4.02;78.44
48926;BME280;39838;59.938;30.642;2022-12-07T08:05:17;100395.34;;;-4.01;78.62
48926;BME280;39838;59.938;30.642;2022-12-07T08:07:44;100395.97;;;-4.05;78.99
48926;BME280;39838;59.938;30.642;2022-12-07T08:10:12;100392.13;;;-3.98;78.57
48926;BME280;39838;59.938;30.642;2022-12-07T08:12:42;100349.59;;;-4.17;78.78
48926;BME280;39838;59.938;30.642;2022-12-07T08:15:25;100392.47;;;-3.92;78.36
48926;BME280;39838;59.938;30.642;2022-12-07T08:17:52;100384.84;;;-3.92;78.60
48926;BME280;39838;59.938;30.642;2022-12-07T08:20:20;100390.94;;;-3.89;78.47
48926;BME280;39838;59.938;30.642;2022-12-07T08:22:47;100386.59;;;-3.91;78.09
48926;BME280;39838;59.938;30.642;2022-12-07T08:25:14;100384.94;;;-3.91;77.94
48926;BME280;39838;59.938;30.642;2022-12-07T08:27:41;100383.97;;;-3.93;78.18
48926;BME280;39838;59.938;30.642;2022-12-07T08:30:09;100383.34;;;-3.89;78.42
48926;BME280;39838;59.938;30.642;2022-12-07T08:32:38;100380.00;;;-3.88;78.18
48926;BME280;39838;59.938;30.642;2022-12-07T08:35:05;100376.94;;;-3.82;78.19
48926;BME280;39838;59.938;30.642;2022-12-07T08:37:33;100373.94;;;-3.75;78.61
48926;BME280;39838;59.938;30.642;2022-12-07T08:40:00;100374.81;;;-3.74;78.55
48926;BME280;39838;59.938;30.642;2022-12-07T08:42:29;100376.56;;;-3.73;78.27
48926;BME280;39838;59.938;30.642;2022-12-07T08:45:04;100378.22;;;-3.74;78.70
48926;BME280;39838;59.938;30.642;2022-12-07T08:47:32;100377.69;;;-3.68;78.13
48926;BME280;39838;59.938;30.642;2022-12-07T08:50:01;100375.16;;;-3.68;78.49
48926;BME280;39838;59.938;30.642;2022-12-07T08:52:30;100367.72;;;-3.65;78.76
48926;BME280;39838;59.938;30.642;2022-12-07T08:54:58;100371.28;;;-3.62;78.60
48926;BME280;39838;59.938;30.642;2022-12-07T08:57:28;100365.41;;;-3.61;78.41
48926;BME280;39838;59.938;30.642;2022-12-07T08:59:57;100367.72;;;-3.65;78.22
48926;BME280;39838;59.938;30.642;2022-12-07T09:02:24;100360.72;;;-3.69;78.14
48926;BME280;39838;59.938;30.642;2022-12-07T09:04:52;100358.25;;;-3.68;78.39
48926;BME280;39838;59.938;30.642;2022-12-07T09:07:20;100349.94;;;-3.65;78.18
48926;BME280;39838;59.938;30.642;2022-12-07T09:09:47;100354.22;;;-3.64;78.07
48926;BME280;39838;59.938;30.642;2022-12-07T09:12:14;100349.84;;;-3.67;78.19
48926;BME280;39838;59.938;30.642;2022-12-07T09:14:41;100350.63;;;-3.68;78.34
48926;BME280;39838;59.938;30.642;2022-12-07T09:17:10;100351.63;;;-3.66;78.27
48926;BME280;39838;59.938;30.642;2022-12-07T09:19:38;100346.63;;;-3.64;78.23
48926;BME280;39838;59.938;30.642;2022-12-07T09:22:07;100351.03;;;-3.60;77.97
48926;BME280;39838;59.938;30.642;2022-12-07T09:24:35;100351.31;;;-3.55;77.59
48926;BME280;39838;59.938;30.642;2022-12-07T09:27:03;100350.50;;;-3.54;77.69
48926;BME280;39838;59.938;30.642;2022-12-07T09:29:30;100357.31;;;-3.53;77.72
48926;BME280;39838;59.938;30.642;2022-12-07T09:31:57;100354.00;;;-3.52;77.94
48926;BME280;39838;59.938;30.642;2022-12-07T09:34:24;100355.84;;;-3.50;77.51
48926;BME280;39838;59.938;30.642;2022-12-07T09:36:52;100350.13;;;-3.46;77.32
48926;BME280;39838;59.938;30.642;2022-12-07T09:39:19;100350.91;;;-3.47;77.36
48926;BME280;39838;59.938;30.642;2022-12-07T09:41:48;100343.47;;;-3.44;77.26
48926;BME280;39838;59.938;30.642;2022-12-07T09:44:20;100340.75;;;-3.47;76.91
48926;BME280;39838;59.938;30.642;2022-12-07T09:46:49;100343.28;;;-3.47;77.05
48926;BME280;39838;59.938;30.642;2022-12-07T09:49:18;100300.66;;;-3.69;76.98
48926;BME280;39838;59.938;30.642;2022-12-07T09:51:46;100327.97;;;-3.48;76.51
48926;BME280;39838;59.938;30.642;2022-12-07T09:54:16;100329.66;;;-3.49;76.95
48926;BME280;39838;59.938;30.642;2022-12-07T09:56:43;100330.44;;;-3.50;76.43
48926;BME280;39838;59.938;30.642;2022-12-07T09:59:17;100331.78;;;-3.57;76.34
48926;BME280;39838;59.938;30.642;2022-12-07T10:01:46;100336.78;;;-3.58;76.79
48926;BME280;39838;59.938;30.642;2022-12-07T10:04:16;100319.88;;;-3.58;76.50
48926;BME280;39838;59.938;30.642;2022-12-07T10:06:44;100330.72;;;-3.60;76.49
48926;BME280;39838;59.938;30.642;2022-12-07T10:09:11;100318.69;;;-3.64;75.99
48926;BME280;39838;59.938;30.642;2022-12-07T10:12:01;100326.28;;;-3.64;75.75
48926;BME280;39838;59.938;30.642;2022-12-07T10:14:31;100323.75;;;-3.64;76.44
48926;BME280;39838;59.938;30.642;2022-12-07T10:16:59;100310.25;;;-3.63;75.82
48926;BME280;39838;59.938;30.642;2022-12-07T10:19:28;100306.94;;;-3.62;75.86
48926;BME280;39838;59.938;30.642;2022-12-07T10:22:10;100307.13;;;-3.74;76.06
48926;BME280;39838;59.938;30.642;2022-12-07T10:24:37;100310.81;;;-3.69;76.21
48926;BME280;39838;59.938;30.642;2022-12-07T10:27:17;100318.69;;;-3.64;76.28
48926;BME280;39838;59.938;30.642;2022-12-07T10:29:49;100305.19;;;-3.63;75.67
48926;BME280;39838;59.938;30.642;2022-12-07T10:32:31;100256.09;;;-3.95;76.08
48926;BME280;39838;59.938;30.642;2022-12-07T10:35:20;100298.03;;;-3.70;76.12
48926;BME280;39838;59.938;30.642;2022-12-07T10:37:49;100300.16;;;-3.78;75.83
48926;BME280;39838;59.938;30.642;2022-12-07T10:40:31;100298.97;;;-3.85;75.76
48926;BME280;39838;59.938;30.642;2022-12-07T10:43:15;100310.44;;;-3.91;75.90
48926;BME280;39838;59.938;30.642;2022-12-07T10:46:04;100234.50;;;-4.34;75.96
48926;BME280;39838;59.938;30.642;2022-12-07T10:48:38;100304.38;;;-3.93;76.62
48926;BME280;39838;59.938;30.642;2022-12-07T10:51:10;100295.69;;;-3.98;76.46
48926;BME280;39838;59.938;30.642;2022-12-07T10:53:52;100300.03;;;-3.96;76.11
48926;BME280;39838;59.938;30.642;2022-12-07T10:56:44;100294.63;;;-4.02;75.93
48926;BME280;39838;59.938;30.642;2022-12-07T10:59:39;100294.22;;;-4.09;76.54
48926;BME280;39838;59.938;30.642;2022-12-07T11:02:24;100284.78;;;-4.12;76.31
48926;BME280;39838;59.938;30.642;2022-12-07T11:05:01;100272.28;;;-4.24;76.05
48926;BME280;39838;59.938;30.642;2022-12-07T11:07:39;100275.94;;;-4.19;75.60
48926;BME280;39838;59.938;30.642;2022-12-07T11:10:13;100285.03;;;-4.22;75.49
48926;BME280;39838;59.938;30.642;2022-12-07T11:13:01;100278.72;;;-4.14;75.86
48926;BME280;39838;59.938;30.642;2022-12-07T11:15:40;100273.56;;;-4.16;75.12
48926;BME280;39838;59.938;30.642;2022-12-07T11:18:18;100271.09;;;-4.14;74.65
48926;BME280;39838;59.938;30.642;2022-12-07T11:20:53;100278.50;;;-4.19;74.16
48926;BME280;39838;59.938;30.642;2022-12-07T11:23:29;100271.41;;;-4.24;74.14
48926;BME280;39838;59.938;30.642;2022-12-07T11:26:07;100269.41;;;-4.30;74.35
48926;BME280;39838;59.938;30.642;2022-12-07T11:28:54;100264.19;;;-4.33;74.13
48926;BME280;39838;59.938;30.642;2022-12-07T11:31:29;100248.00;;;-4.50;73.67
48926;BME280;39838;59.938;30.642;2022-12-07T11:34:03;100268.63;;;-4.44;74.51
48926;BME280;39838;59.938;30.642;2022-12-07T11:36:37;100272.13;;;-4.42;74.33
48926;BME280;39838;59.938;30.642;2022-12-07T11:39:15;100263.91;;;-4.37;73.96
48926;BME280;39838;59.938;30.642;2022-12-07T11:41:43;100256.22;;;-4.39;73.90
48926;BME280;39838;59.938;30.642;2022-12-07T11:44:23;100249.25;;;-4.58;73.81
48926;BME280;39838;59.938;30.642;2022-12-07T11:46:56;100253.97;;;-4.64;73.98
48926;BME280;39838;59.938;30.642;2022-12-07T11:49:36;100260.25;;;-4.57;74.18
48926;BME280;39838;59.938;30.642;2022-12-07T11:52:06;100251.84;;;-4.56;74.39
48926;BME280;39838;59.938;30.642;2022-12-07T11:54:41;100232.47;;;-4.85;74.37
48926;BME280;39838;59.938;30.642;2022-12-07T11:57:17;100246.97;;;-4.83;74.55
48926;BME280;39838;59.938;30.642;2022-12-07T11:59:50;100261.81;;;-4.74;74.33
48926;BME280;39838;59.938;30.642;2022-12-07T12:02:21;100197.53;;;-5.06;74.64
48926;BME280;39838;59.938;30.642;2022-12-07T12:04:56;100203.63;;;-5.17;74.87
48926;BME280;39838;59.938;30.642;2022-12-07T12:07:27;100245.69;;;-4.91;74.91
48926;BME280;39838;59.938;30.642;2022-12-07T12:09:57;100206.38;;;-5.14;75.24
48926;BME280;39838;59.938;30.642;2022-12-07T12:15:23;100248.72;;;-4.97;75.01
48926;BME280;39838;59.938;30.642;2022-12-07T12:18:14;100242.19;;;-5.08;74.84
48926;BME280;39838;59.938;30.642;2022-12-07T12:20:50;100233.94;;;-5.18;75.54
48926;BME280;39838;59.938;30.642;2022-12-07T12:23:21;100206.75;;;-5.36;75.20
48926;BME280;39838;59.938;30.642;2022-12-07T12:25:51;100235.41;;;-5.22;75.48
48926;BME280;39838;59.938;30.642;2022-12-07T12:28:24;100236.13;;;-5.25;76.03
48926;BME280;39838;59.938;30.642;2022-12-07T12:31:12;100229.66;;;-5.34;75.39
48926;BME280;39838;59.938;30.642;2022-12-07T12:33:44;100223.97;;;-5.30;75.83
48926;BME280;39838;59.938;30.642;2022-12-07T12:36:23;100232.94;;;-5.35;75.99
48926;BME280;39838;59.938;30.642;2022-12-07T12:39:08;100231.63;;;-5.43;76.03
48926;BME280;39838;59.938;30.642;2022-12-07T12:41:56;100204.47;;;-5.61;75.48
48926;BME280;39838;59.938;30.642;2022-12-07T12:44:40;100222.13;;;-5.47;76.04
48926;BME280;39838;59.938;30.642;2022-12-07T12:50:28;100218.47;;;-5.38;76.30
48926;BME280;39838;59.938;30.642;2022-12-07T12:53:03;100220.94;;;-5.25;75.94
48926;BME280;39838;59.938;30.642;2022-12-07T12:55:49;100216.94;;;-5.21;76.12
48926;BME280;39838;59.938;30.642;2022-12-07T12:58:38;100216.56;;;-5.27;75.68
48926;BME280;39838;59.938;30.642;2022-12-07T13:04:37;100219.69;;;-5.31;76.13
48926;BME280;39838;59.938;30.642;2022-12-07T13:07:11;100214.47;;;-5.34;76.17
48926;BME280;39838;59.938;30.642;2022-12-07T13:09:44;100226.06;;;-5.23;76.58
48926;BME280;39838;59.938;30.642;2022-12-07T13:12:14;100209.84;;;-5.27;76.66